Time;durP1;ratioP1;P1;durP2;ratioP2;P2;SDS_P1;SDS_P2;PMS_P1;PMS_P2;Temp;Humidity;BMP_temperature;BMP_pressure;BME280_temperature;BME280_humidity;BME280_pressure;Samples;Min_cycle;Max_cycle;Signal;HPM_P1;HPM_P2
2022/07/29 00:01:20;;;;;;;4.20;2.40;;;;;;;29.17;39.52;99306.28;4953595;28;20429;-92
2022/07/29 00:07:11;;;;;;;3.22;2.00;;;;;;;29.17;38.99;99303.59;5100179;23;20053;-89
2022/07/29 00:15:58;;;;;;;3.77;2.43;;;;;;;29.14;39.54;99295.84;1825598;23;20237;-89
2022/07/29 00:18:23;;;;;;;3.65;2.33;;;;;;;29.13;39.09;99291.47;4317895;23;27311309;-89
2022/07/29 02:09:53;;;;;;;4.15;2.47;;;;;;;28.80;39.58;99243.56;5229223;23;19913;-90
2022/07/29 02:36:50;;;;;;;3.30;2.00;;;;;;;28.72;39.65;99277.53;5639295;23;20030;-91
2022/07/29 03:04:56;;;;;;;2.95;1.95;;;;;;;28.57;39.45;99278.00;5215205;23;20039;-91
2022/07/29 03:22:24;;;;;;;3.08;1.80;;;;;;;28.54;39.75;99271.13;2106173;23;20224;-89
2022/07/29 03:42:45;;;;;;;3.03;2.00;;;;;;;28.46;39.49;99279.06;5652650;23;20978;-89
2022/07/29 05:06:30;;;;;;;3.22;1.45;;;;;;;28.24;40.47;99398.31;1616410;23;20225;-90
2022/07/29 05:09:05;;;;;;;2.85;1.60;;;;;;;28.24;40.05;99403.69;4996401;28;20043;-92
2022/07/29 05:11:30;;;;;;;3.00;1.50;;;;;;;28.22;40.54;99378.81;4980691;28;20102;-91
2022/07/29 05:13:56;;;;;;;3.10;1.83;;;;;;;28.23;40.34;99385.91;4979533;28;20031;-91
2022/07/29 05:16:22;;;;;;;3.40;1.63;;;;;;;28.22;40.28;99374.31;4980218;28;20045;-91
2022/07/29 05:18:53;;;;;;;2.45;1.70;;;;;;;28.22;40.61;99352.00;4981705;28;20014;-91
2022/07/29 05:21:18;;;;;;;3.08;1.92;;;;;;;28.21;40.23;99350.28;4948644;28;20054;-92
2022/07/29 05:23:44;;;;;;;2.58;1.50;;;;;;;28.22;40.05;99330.53;4978223;28;20478;-91
2022/07/29 05:26:10;;;;;;;3.25;1.88;;;;;;;28.21;40.25;99301.97;4978423;28;20021;-91
2022/07/29 05:28:36;;;;;;;2.50;1.80;;;;;;;28.19;40.13;99304.84;4978756;28;20026;-91
2022/07/29 05:31:02;;;;;;;2.67;1.58;;;;;;;28.20;40.00;99332.50;4979506;28;20031;-90
2022/07/29 05:33:28;;;;;;;2.85;1.70;;;;;;;28.20;39.92;99380.78;4979452;28;20027;-90
2022/07/29 05:35:54;;;;;;;3.97;1.92;;;;;;;28.18;40.37;99428.38;4981230;28;20013;-91
2022/07/29 05:38:20;;;;;;;2.78;1.67;;;;;;;28.18;40.30;99447.97;4980462;28;20026;-89
2022/07/29 05:40:48;;;;;;;2.75;1.73;;;;;;;28.17;40.19;99440.91;4980029;28;20054;-91
2022/07/29 05:43:14;;;;;;;2.78;1.65;;;;;;;28.19;40.36;99444.31;4996428;28;20058;-92
2022/07/29 05:45:40;;;;;;;3.42;1.80;;;;;;;28.15;40.27;99427.63;4978948;28;20030;-92
2022/07/29 05:48:06;;;;;;;3.42;1.65;;;;;;;28.18;40.56;99410.41;4977321;28;20039;-91
2022/07/29 05:50:32;;;;;;;3.20;1.83;;;;;;;28.14;40.46;99407.19;4995041;28;20038;-91
2022/07/29 05:52:57;;;;;;;2.65;1.55;;;;;;;28.13;40.42;99410.84;4978654;28;20027;-91
2022/07/29 05:55:23;;;;;;;4.05;1.73;;;;;;;28.13;40.40;99392.06;4979420;28;20023;-90
2022/07/29 05:57:49;;;;;;;3.25;1.98;;;;;;;28.12;40.78;99365.38;4979020;28;20054;-92
2022/07/29 06:00:15;;;;;;;4.25;2.10;;;;;;;28.15;40.75;99395.44;4979819;28;20065;-91
2022/07/29 06:02:41;;;;;;;3.85;1.90;;;;;;;28.11;40.58;99415.53;4978614;28;20042;-91
2022/07/29 06:05:07;;;;;;;4.32;1.83;;;;;;;28.13;40.99;99359.06;4978131;28;20022;-93
2022/07/29 06:07:34;;;;;;;2.92;1.60;;;;;;;28.13;40.47;99321.50;4978192;28;20082;-93
2022/07/29 06:09:59;;;;;;;3.70;1.83;;;;;;;28.10;40.92;99335.19;4979424;28;20026;-93
2022/07/29 06:12:29;;;;;;;3.78;1.92;;;;;;;28.10;40.77;99349.47;4996681;28;20023;-91
2022/07/29 06:14:56;;;;;;;2.67;1.67;;;;;;;28.12;40.76;99394.91;4979765;28;20493;-92
2022/07/29 06:17:22;;;;;;;3.08;1.75;;;;;;;28.11;40.83;99441.47;4977469;28;20034;-91
2022/07/29 06:19:48;;;;;;;4.47;2.10;;;;;;;28.10;41.02;99446.03;4978873;28;20023;-91
2022/07/29 06:22:16;;;;;;;2.75;1.50;;;;;;;28.10;41.34;99463.94;4979465;28;20034;-91
2022/07/29 06:24:43;;;;;;;3.25;1.83;;;;;;;28.09;41.14;99471.13;4980457;28;20011;-91
2022/07/29 06:27:12;;;;;;;3.15;1.92;;;;;;;28.08;41.34;99455.19;4997043;28;20003;-91
2022/07/29 06:29:39;;;;;;;3.72;2.05;;;;;;;28.08;41.19;99453.34;4977754;28;20019;-91
2022/07/29 06:32:05;;;;;;;4.65;2.10;;;;;;;28.07;41.23;99467.75;4980030;28;20034;-92
2022/07/29 06:34:32;;;;;;;3.60;1.92;;;;;;;28.08;41.16;99456.03;4978482;28;20031;-91
2022/07/29 06:37:19;;;;;;;3.97;2.03;;;;;;;28.07;41.57;99454.34;4996196;28;20039;-91
2022/07/29 06:42:48;;;;;;;3.03;1.73;;;;;;;28.06;41.83;99444.59;4996444;28;20061;-92
2022/07/29 06:45:13;;;;;;;3.63;1.90;;;;;;;28.05;41.38;99466.19;4963413;28;20027;-91
2022/07/29 06:47:41;;;;;;;4.85;1.88;;;;;;;28.05;41.43;99480.47;4978681;28;20666;-91
2022/07/29 06:50:11;;;;;;;3.17;1.83;;;;;;;28.04;41.60;99484.13;4963196;28;20034;-90
2022/07/29 06:52:37;;;;;;;4.00;1.77;;;;;;;28.05;41.60;99504.59;4963237;28;20046;-91
2022/07/29 06:55:03;;;;;;;4.28;1.98;;;;;;;28.06;41.68;99514.34;4978103;28;20027;-92
2022/07/29 06:57:29;;;;;;;3.10;1.70;;;;;;;28.05;41.58;99514.47;4978430;28;20034;-92
2022/07/29 06:59:56;;;;;;;4.82;1.95;;;;;;;28.03;41.83;99530.69;4978264;28;20092;-92
2022/07/29 07:02:22;;;;;;;4.65;1.75;;;;;;;28.05;41.97;99527.88;4980017;28;20011;-91
2022/07/29 07:04:48;;;;;;;3.55;2.00;;;;;;;28.05;41.85;99523.38;4963920;28;20054;-91
2022/07/29 07:07:20;;;;;;;3.03;1.73;;;;;;;28.03;42.00;99514.59;4978269;28;20023;-91
2022/07/29 07:09:45;;;;;;;3.00;2.10;;;;;;;28.05;41.72;99530.56;4979192;28;20041;-91
2022/07/29 07:12:11;;;;;;;3.50;1.80;;;;;;;28.04;42.23;99532.41;4979220;28;20027;-92
2022/07/29 07:14:39;;;;;;;4.82;1.90;;;;;;;28.02;42.06;99520.94;4979227;28;20013;-92
2022/07/29 07:17:06;;;;;;;3.33;1.73;;;;;;;28.02;42.09;99518.28;4977071;28;20066;-92
2022/07/29 07:19:32;;;;;;;3.08;1.50;;;;;;;28.02;41.86;99515.59;4976198;28;20027;-91
2022/07/29 07:21:58;;;;;;;3.78;1.85;;;;;;;27.99;41.96;99513.19;4976609;28;20057;-90
2022/07/29 07:24:24;;;;;;;2.85;1.58;;;;;;;28.00;42.13;99501.47;4977144;28;20090;-92
2022/07/29 07:26:50;;;;;;;4.28;2.15;;;;;;;27.99;42.07;99505.97;4978710;28;20026;-91
2022/07/29 07:29:16;;;;;;;2.60;1.50;;;;;;;28.00;41.96;99515.72;4979657;28;20092;-91
2022/07/29 07:31:42;;;;;;;3.15;1.92;;;;;;;27.99;42.05;99516.72;4979629;28;20084;-91
2022/07/29 07:34:09;;;;;;;3.13;1.60;;;;;;;28.00;42.11;99525.63;4980563;28;20074;-91
2022/07/29 07:36:58;;;;;;;3.97;1.80;;;;;;;28.00;41.85;99515.72;4984583;28;20023;-90
2022/07/29 07:39:25;;;;;;;4.97;2.10;;;;;;;28.00;42.34;99514.88;4983851;28;20045;-91
2022/07/29 07:41:57;;;;;;;3.55;1.70;;;;;;;27.99;41.98;99524.75;4969178;28;20015;-91
2022/07/29 07:44:23;;;;;;;4.20;1.92;;;;;;;27.97;42.29;99521.38;4984605;28;20094;-91
2022/07/29 07:46:48;;;;;;;4.28;2.15;;;;;;;27.96;41.87;99508.97;4967658;28;20034;-91
2022/07/29 07:52:22;;;;;;;3.58;1.80;;;;;;;27.97;41.99;99504.44;5001298;28;20046;-91
2022/07/29 07:54:50;;;;;;;3.25;1.88;;;;;;;27.96;41.88;99513.47;5076169;23;20021;-92
2022/07/29 08:00:48;;;;;;;2.72;1.63;;;;;;;27.96;42.25;99530.41;5448002;23;20046;-89
2022/07/29 08:03:24;;;;;;;3.70;1.73;;;;;;;27.97;42.41;99523.19;5319920;23;20050;-90
2022/07/29 08:05:58;;;;;;;3.42;2.20;;;;;;;27.95;42.16;99523.34;4972176;28;20038;-90
2022/07/29 08:11:01;;;;;;;3.80;2.00;;;;;;;27.96;42.83;99534.91;5394940;23;20049;-90
2022/07/29 08:13:37;;;;;;;3.50;1.85;;;;;;;27.93;42.41;99533.34;5020719;28;20094;-90
2022/07/29 08:31:33;;;;;;;4.80;1.92;;;;;;;27.94;42.04;99579.81;5162283;23;20053;-91
2022/07/29 08:34:05;;;;;;;3.72;1.60;;;;;;;27.91;42.45;99580.91;5002936;28;20045;-91
2022/07/29 08:36:33;;;;;;;3.78;2.15;;;;;;;27.90;42.54;99589.09;4996228;28;20034;-91
2022/07/29 08:39:02;;;;;;;3.33;1.90;;;;;;;27.92;42.44;99592.47;4971238;28;20014;-90
2022/07/29 08:51:35;;;;;;;3.30;1.85;;;;;;;27.87;42.70;99598.25;5142783;23;20033;-90
2022/07/29 09:10:07;;;;;;;3.05;1.70;;;;;;;27.86;42.44;99594.75;5060763;23;20037;-91
2022/07/29 09:12:49;;;;;;;3.95;2.00;;;;;;;27.86;42.63;99594.75;5002951;28;20015;-90
2022/07/29 09:22:23;;;;;;;3.08;1.88;;;;;;;27.83;42.90;99576.22;5400691;23;20042;-91
2022/07/29 09:28:41;;;;;;;2.95;2.00;;;;;;;27.84;42.29;99569.88;5020220;28;20033;-91
2022/07/29 09:31:14;;;;;;;3.83;1.90;;;;;;;27.84;42.67;99564.53;5001811;28;20011;-91
2022/07/29 09:36:32;;;;;;;3.77;2.13;;;;;;;27.83;42.85;99544.06;5460979;23;20030;-91
2022/07/29 09:39:05;;;;;;;3.70;1.83;;;;;;;27.83;42.94;99536.03;5523096;23;20033;-91
2022/07/29 09:41:48;;;;;;;3.95;2.10;;;;;;;27.84;42.69;99526.97;5002510;28;20022;-90
2022/07/29 09:44:16;;;;;;;3.08;1.80;;;;;;;27.83;43.16;99519.94;4983111;28;20019;-91
2022/07/29 09:47:06;;;;;;;3.70;2.10;;;;;;;27.81;43.25;99516.56;5002766;28;20028;-90
2022/07/29 09:49:43;;;;;;;4.82;2.63;;;;;;;27.81;43.35;99521.91;5039649;23;20057;-91
2022/07/29 09:55:09;;;;;;;5.80;2.30;;;;;;;27.85;43.57;99525.16;5170512;23;20034;-90
2022/07/29 09:57:45;;;;;;;3.03;1.92;;;;;;;27.87;43.24;99532.09;4994272;28;20037;-91
2022/07/29 10:10:34;;;;;;;4.45;2.38;;;;;;;27.92;43.26;99554.94;5419231;23;20026;-92
2022/07/29 10:20:19;;;;;;;4.97;2.67;;;;;;;27.96;43.50;99559.06;5117407;23;20082;-90
2022/07/29 10:23:13;;;;;;;4.18;2.45;;;;;;;27.96;43.46;99545.66;5194537;23;21807;-91
2022/07/29 10:25:46;;;;;;;3.85;2.38;;;;;;;27.96;42.57;99545.66;4961319;28;20043;-91
2022/07/29 10:31:55;;;;;;;4.85;2.70;;;;;;;28.03;43.22;99546.78;5084962;23;20309;-90
2022/07/29 10:41:54;;;;;;;4.78;2.65;;;;;;;28.07;43.08;99540.16;4999074;28;20107;-91
2022/07/29 10:44:33;;;;;;;4.75;2.45;;;;;;;28.07;42.93;99531.25;4901005;29;20094;-92
2022/07/29 10:47:26;;;;;;;4.25;2.22;;;;;;;28.06;43.21;99535.78;4902023;29;20017;-91
2022/07/29 10:50:07;;;;;;;3.72;2.30;;;;;;;28.07;42.93;99531.25;4885514;29;20049;-91
2022/07/29 10:52:57;;;;;;;3.88;2.70;;;;;;;28.09;43.01;99526.63;4885050;29;20041;-91
2022/07/29 10:55:44;;;;;;;3.97;2.50;;;;;;;28.11;42.76;99517.44;4975558;28;20026;-90
2022/07/29 10:58:22;;;;;;;3.67;2.42;;;;;;;28.11;43.29;99517.44;4979436;28;20102;-90
2022/07/29 11:01:31;;;;;;;4.50;2.63;;;;;;;28.14;43.04;99522.53;4996802;28;20047;-92
2022/07/29 11:03:58;;;;;;;3.47;2.10;;;;;;;28.17;42.64;99520.56;4998218;28;20042;-90
2022/07/29 11:07:09;;;;;;;3.45;2.20;;;;;;;28.18;42.69;99514.19;4981916;28;20107;-90
2022/07/29 11:12:58;;;;;;;3.38;2.10;;;;;;;28.19;42.93;99510.53;5002723;28;20054;-90
2022/07/29 11:15:25;;;;;;;4.45;2.50;;;;;;;28.19;42.74;99502.47;4984981;28;20019;-91
2022/07/29 11:18:02;;;;;;;3.33;2.45;;;;;;;28.19;42.79;99506.03;4982939;28;20457;-90
2022/07/29 11:20:45;;;;;;;3.83;2.60;;;;;;;28.20;43.15;99505.03;4985428;28;20041;-91
2022/07/29 11:23:39;;;;;;;3.80;2.85;;;;;;;28.23;42.88;99498.56;4999564;28;20080;-90
2022/07/29 11:29:25;;;;;;;4.03;2.65;;;;;;;28.27;42.49;99505.34;5001666;28;20038;-90
2022/07/29 11:31:56;;;;;;;3.65;2.22;;;;;;;28.27;42.53;99494.59;4888273;29;20484;-90
2022/07/29 11:34:32;;;;;;;3.58;2.47;;;;;;;28.27;42.47;99497.28;4888898;29;20037;-90
2022/07/29 11:37:34;;;;;;;;;;;;;;;28.29;42.34;99508.75;4930978;28;20062;-91
2022/07/29 11:47:36;;;;;;;3.40;2.35;;;;;;;28.33;42.28;99490.53;5001920;28;20053;-91
2022/07/29 11:50:16;;;;;;;4.53;2.97;;;;;;;28.35;42.36;99492.06;4984763;28;20027;-92
2022/07/29 11:52:47;;;;;;;4.72;2.95;;;;;;;28.37;41.98;99490.09;4983604;28;20107;-91
2022/07/29 11:55:19;;;;;;;4.35;2.70;;;;;;;28.38;42.15;99486.41;4984150;28;20026;-91
2022/07/29 11:58:05;;;;;;;3.47;2.30;;;;;;;28.41;42.28;99475.41;4984398;28;20015;-91
2022/07/29 12:00:42;;;;;;;4.28;2.47;;;;;;;28.44;42.44;99478.78;4968344;28;20050;-91
2022/07/29 12:03:14;;;;;;;3.75;2.42;;;;;;;28.45;42.20;99477.78;4982868;28;20015;-90
2022/07/29 12:05:49;;;;;;;3.05;1.90;;;;;;;28.46;42.04;99476.81;4984096;28;20043;-91
2022/07/29 12:08:21;;;;;;;3.53;2.30;;;;;;;28.50;42.40;99475.53;4967590;28;20045;-92
2022/07/29 12:10:57;;;;;;;3.33;2.28;;;;;;;28.51;42.25;99480.75;4966229;28;20046;-91
2022/07/29 12:13:39;;;;;;;2.95;2.03;;;;;;;28.53;42.05;99480.63;4981853;28;20030;-92
2022/07/29 12:16:08;;;;;;;4.28;2.22;;;;;;;28.54;42.01;99485.00;4982434;28;20039;-91
2022/07/29 12:18:34;;;;;;;4.40;2.50;;;;;;;28.55;41.97;99475.94;4983450;28;20050;-91
2022/07/29 12:21:03;;;;;;;3.42;2.10;;;;;;;28.54;42.30;99485.84;4982092;28;20030;-90
2022/07/29 12:23:31;;;;;;;3.67;2.20;;;;;;;28.57;42.02;99468.59;4982312;28;20094;-91
2022/07/29 12:25:59;;;;;;;3.88;2.55;;;;;;;28.57;42.24;99471.28;4980709;28;20077;-90
2022/07/29 12:28:25;;;;;;;3.65;2.45;;;;;;;28.58;41.94;99474.81;4982065;28;20049;-91
2022/07/29 12:30:52;;;;;;;3.35;2.28;;;;;;;28.60;41.59;99484.41;4998391;28;20033;-91
2022/07/29 12:33:29;;;;;;;4.00;2.53;;;;;;;28.62;41.69;99492.34;4982028;28;20094;-91
2022/07/29 12:35:58;;;;;;;4.30;2.30;;;;;;;28.62;41.68;99490.47;4981854;28;20054;-91
2022/07/29 12:38:26;;;;;;;3.10;2.38;;;;;;;28.64;41.87;99490.34;4982766;28;20085;-91
2022/07/29 12:40:54;;;;;;;4.55;2.40;;;;;;;28.66;41.73;99485.66;4983292;28;20026;-90
2022/07/29 12:43:22;;;;;;;3.45;2.25;;;;;;;28.67;41.77;99490.91;4982484;28;20051;-90
2022/07/29 12:46:02;;;;;;;4.05;2.40;;;;;;;28.66;41.93;99491.03;4967401;28;20022;-90
2022/07/29 12:48:41;;;;;;;4.97;2.72;;;;;;;28.67;41.67;99501.63;4967713;28;20102;-90
2022/07/29 12:51:11;;;;;;;3.20;2.03;;;;;;;28.70;41.59;99497.81;4980939;28;20035;-90
2022/07/29 12:53:38;;;;;;;3.65;2.10;;;;;;;28.71;41.55;99501.38;4982317;28;20039;-90
2022/07/29 12:56:05;;;;;;;3.55;2.20;;;;;;;28.72;41.71;99500.38;4982207;28;20097;-91
2022/07/29 12:58:38;;;;;;;3.83;2.25;;;;;;;28.71;41.57;99496.00;4981339;28;20122;-91
2022/07/29 13:01:14;;;;;;;4.88;2.17;;;;;;;28.71;41.71;99498.69;4980250;28;20096;-92
2022/07/29 13:04:03;;;;;;;3.05;2.10;;;;;;;28.73;41.52;99499.38;4982220;28;20042;-92
2022/07/29 13:06:45;;;;;;;3.78;2.30;;;;;;;28.74;41.52;99493.00;4981803;28;20074;-92
2022/07/29 13:09:22;;;;;;;3.92;2.20;;;;;;;28.75;41.22;99492.00;4980312;28;20014;-91
2022/07/29 13:11:51;;;;;;;3.95;2.10;;;;;;;28.76;41.31;99494.56;4967232;28;20489;-90
2022/07/29 13:14:32;;;;;;;2.80;2.05;;;;;;;28.77;41.58;99488.19;4982199;28;20094;-90
2022/07/29 13:17:29;;;;;;;2.55;1.95;;;;;;;28.79;41.26;99493.44;5285090;23;20051;-92
2022/07/29 13:20:15;;;;;;;3.30;1.90;;;;;;;28.78;41.31;99486.38;4997186;28;20038;-92
2022/07/29 13:22:42;;;;;;;2.80;1.98;;;;;;;28.78;41.06;99487.22;4994546;28;20110;-90
2022/07/29 13:25:10;;;;;;;3.88;1.95;;;;;;;28.80;41.37;99487.06;4980032;28;20049;-91
2022/07/29 13:27:40;;;;;;;2.97;1.98;;;;;;;28.80;41.53;99492.44;4996961;28;20039;-91
2022/07/29 13:30:10;;;;;;;3.08;1.95;;;;;;;28.80;41.32;99495.13;4997468;28;20035;-90
2022/07/29 13:32:39;;;;;;;3.70;2.15;;;;;;;28.80;40.99;99490.59;4997001;28;20042;-91
2022/07/29 13:35:08;;;;;;;4.22;2.08;;;;;;;28.83;41.06;99494.84;4997956;28;20014;-91
2022/07/29 13:37:42;;;;;;;3.92;2.17;;;;;;;28.83;41.31;99505.59;4997032;28;20025;-90
2022/07/29 13:40:14;;;;;;;2.83;1.85;;;;;;;28.83;41.03;99502.91;4993188;28;20045;-90
2022/07/29 13:42:41;;;;;;;2.90;1.75;;;;;;;28.85;41.46;99508.13;4996860;28;20062;-91
2022/07/29 13:45:08;;;;;;;3.20;2.08;;;;;;;28.85;41.23;99508.97;4981308;28;20130;-90
2022/07/29 13:47:34;;;;;;;3.17;1.80;;;;;;;28.85;41.26;99508.97;4996118;28;20038;-90
2022/07/29 13:50:01;;;;;;;2.78;1.80;;;;;;;28.86;41.30;99521.41;4996613;28;20003;-90
2022/07/29 13:52:27;;;;;;;2.40;1.60;;;;;;;28.87;40.86;99515.09;4997459;28;20035;-90
2022/07/29 13:54:53;;;;;;;2.70;1.90;;;;;;;28.88;41.33;99514.09;4996656;28;20046;-90
2022/07/29 13:57:33;;;;;;;3.03;1.90;;;;;;;28.90;41.22;99522.00;4996593;28;20038;-91
2022/07/29 14:00:00;;;;;;;2.70;1.70;;;;;;;28.90;41.39;99517.47;4965820;28;20035;-90
2022/07/29 14:02:26;;;;;;;3.30;2.25;;;;;;;28.91;41.15;99521.84;4997429;28;20017;-92
2022/07/29 14:04:53;;;;;;;3.67;1.98;;;;;;;28.92;41.19;99515.47;4997570;28;20035;-91
2022/07/29 14:07:19;;;;;;;2.97;1.90;;;;;;;28.93;41.07;99508.28;4995386;28;20027;-91
2022/07/29 14:09:57;;;;;;;2.95;1.80;;;;;;;28.94;41.16;99508.13;4995433;28;20022;-92
2022/07/29 14:12:25;;;;;;;2.88;2.05;;;;;;;28.95;41.36;99511.66;4996284;28;20596;-90
2022/07/29 14:14:54;;;;;;;2.47;1.88;;;;;;;28.96;41.10;99509.81;4980845;28;20039;-91
2022/07/29 14:17:26;;;;;;;3.08;1.95;;;;;;;28.97;40.76;99517.75;4996250;28;20086;-91
2022/07/29 14:19:58;;;;;;;3.40;1.95;;;;;;;28.98;41.16;99515.88;4996335;28;20042;-90
2022/07/29 14:22:25;;;;;;;3.53;1.92;;;;;;;28.99;41.09;99515.75;4995554;28;20034;-91
2022/07/29 14:24:51;;;;;;;3.60;1.73;;;;;;;28.98;41.18;99508.69;4995609;28;20022;-92
2022/07/29 14:27:16;;;;;;;2.13;1.73;;;;;;;29.00;40.76;99503.19;4996271;28;20038;-90
2022/07/29 14:30:03;;;;;;;2.75;1.70;;;;;;;29.00;41.10;99503.19;4996397;28;20018;-90
2022/07/29 14:32:29;;;;;;;2.80;1.90;;;;;;;29.03;41.01;99492.13;4995596;28;20037;-92
2022/07/29 14:34:55;;;;;;;2.92;1.98;;;;;;;29.05;41.31;99498.22;4995359;28;20098;-90
2022/07/29 14:38:07;;;;;;;3.40;1.83;;;;;;;29.06;40.85;99486.47;4994713;28;20058;-91
2022/07/29 14:40:33;;;;;;;2.80;1.80;;;;;;;29.05;40.87;99492.84;4995242;28;20023;-90
2022/07/29 14:42:59;;;;;;;4.15;1.98;;;;;;;29.05;41.01;99488.31;4994588;28;20034;-90
2022/07/29 14:45:29;;;;;;;3.47;1.85;;;;;;;29.07;41.01;99498.91;4999574;28;20030;-91
2022/07/29 14:47:55;;;;;;;3.53;2.00;;;;;;;29.07;41.05;99480.97;4999699;28;20038;-90
2022/07/29 14:50:21;;;;;;;3.25;1.98;;;;;;;29.08;40.95;99476.41;4999681;28;20022;-90
2022/07/29 14:52:47;;;;;;;3.08;1.90;;;;;;;29.10;40.98;99485.16;4999384;28;20023;-92
2022/07/29 14:55:13;;;;;;;3.13;2.05;;;;;;;29.12;40.90;99496.63;4998651;28;20023;-91
2022/07/29 14:57:39;;;;;;;4.72;1.73;;;;;;;29.11;40.81;99497.63;4998642;28;20033;-93
2022/07/29 15:00:07;;;;;;;2.97;1.92;;;;;;;29.14;41.25;99486.56;4998520;28;20023;-92
2022/07/29 15:02:33;;;;;;;2.65;1.70;;;;;;;29.14;40.92;99491.94;4999460;28;20048;-92
2022/07/29 15:04:59;;;;;;;3.28;1.70;;;;;;;29.15;41.30;99495.50;4983340;28;20069;-91
2022/07/29 15:07:27;;;;;;;3.42;2.03;;;;;;;29.16;40.84;99489.97;4999484;28;20027;-91
2022/07/29 15:09:53;;;;;;;2.05;1.50;;;;;;;29.17;40.92;99496.19;4999778;28;20003;-91
2022/07/29 15:12:23;;;;;;;2.72;1.55;;;;;;;29.16;41.21;99489.97;4998754;28;20018;-91
2022/07/29 15:14:49;;;;;;;2.50;1.55;;;;;;;29.19;40.78;99494.19;4983002;28;20050;-91
2022/07/29 15:17:15;;;;;;;2.40;1.50;;;;;;;29.19;40.87;99489.66;4982266;28;20051;-91
2022/07/29 15:19:41;;;;;;;3.00;1.83;;;;;;;29.20;40.66;99483.28;4998788;28;20042;-92
2022/07/29 15:22:09;;;;;;;2.80;1.70;;;;;;;29.20;40.70;99490.53;4998862;28;20065;-92
2022/07/29 15:24:36;;;;;;;2.53;1.85;;;;;;;29.20;41.14;99491.34;4983322;28;20034;-91
2022/07/29 15:27:03;;;;;;;4.07;1.73;;;;;;;29.21;41.01;99493.03;4998975;28;20023;-92
2022/07/29 15:29:29;;;;;;;2.72;1.90;;;;;;;29.24;41.05;99501.81;4999036;28;20030;-91
2022/07/29 15:31:55;;;;;;;1.77;1.50;;;;;;;29.24;40.68;99499.13;4999276;28;20023;-90
2022/07/29 15:34:22;;;;;;;3.10;1.95;;;;;;;29.24;40.76;99501.81;4999672;28;20017;-90
2022/07/29 15:36:51;;;;;;;2.65;1.55;;;;;;;29.25;40.98;99498.16;4999003;28;20041;-91
2022/07/29 15:39:21;;;;;;;2.85;1.70;;;;;;;29.25;40.96;99498.16;4997868;28;20054;-91
2022/07/29 15:41:47;;;;;;;2.47;1.92;;;;;;;29.25;40.85;99503.50;4981545;28;20034;-91
2022/07/29 15:44:16;;;;;;;2.50;1.80;;;;;;;29.26;40.49;99505.19;4996720;28;20031;-91
2022/07/29 15:49:32;;;;;;;2.47;1.70;;;;;;;29.27;40.69;99498.81;4997829;28;20042;-91
2022/07/29 15:52:07;;;;;;;3.05;1.52;;;;;;;29.28;40.99;99497.81;4999196;28;20031;-91
2022/07/29 15:54:53;;;;;;;3.08;1.80;;;;;;;29.29;40.83;99500.38;4983016;28;20038;-91
2022/07/29 15:57:18;;;;;;;2.53;1.80;;;;;;;29.29;41.01;99494.19;4995290;28;20086;-91
2022/07/29 15:59:54;;;;;;;2.85;1.60;;;;;;;29.30;40.52;99507.44;4998366;28;20023;-91
2022/07/29 16:02:23;;;;;;;2.25;1.65;;;;;;;29.30;40.84;99495.84;4998871;28;20030;-91
2022/07/29 16:04:49;;;;;;;2.10;1.42;;;;;;;29.31;40.52;99505.59;4998776;28;20398;-92
2022/07/29 16:07:18;;;;;;;1.90;1.40;;;;;;;29.30;40.39;99498.56;4999076;28;20033;-91
2022/07/29 16:10:46;;;;;;;2.78;1.65;;;;;;;29.31;40.63;99500.22;4998627;28;20027;-91
2022/07/29 16:13:24;;;;;;;3.00;1.95;;;;;;;29.32;40.66;99499.22;4999246;28;20050;-91
2022/07/29 16:16:36;;;;;;;2.88;1.80;;;;;;;29.34;40.76;99505.28;4997950;28;20035;-91
2022/07/29 16:19:11;;;;;;;2.88;1.88;;;;;;;29.33;40.66;99499.09;4997625;28;20047;-91
2022/07/29 16:22:13;;;;;;;3.20;1.98;;;;;;;29.35;40.63;99504.34;4999461;28;20034;-91
2022/07/29 16:24:41;;;;;;;2.25;1.80;;;;;;;29.34;40.33;99498.09;4998287;28;20038;-91
2022/07/29 16:27:14;;;;;;;2.50;1.55;;;;;;;29.35;40.54;99505.16;4997747;28;20046;-91
2022/07/29 16:29:46;;;;;;;3.45;1.90;;;;;;;29.36;40.49;99506.00;4998562;28;20045;-92
2022/07/29 16:32:13;;;;;;;2.30;1.60;;;;;;;29.37;40.41;99515.78;4997032;28;20018;-91
2022/07/29 16:34:41;;;;;;;3.67;2.10;;;;;;;29.36;40.45;99506.00;4997617;28;20030;-91
2022/07/29 16:37:06;;;;;;;2.75;1.67;;;;;;;29.37;40.55;99507.72;4998186;28;20019;-91
2022/07/29 16:39:33;;;;;;;2.15;1.65;;;;;;;29.38;40.66;99498.66;4996943;28;20034;-92
2022/07/29 16:41:59;;;;;;;3.55;2.17;;;;;;;29.39;40.54;99499.50;4998243;28;20054;-92
2022/07/29 16:44:25;;;;;;;2.05;1.70;;;;;;;29.38;40.55;99509.41;4997496;28;20031;-91
2022/07/29 16:46:51;;;;;;;2.45;1.73;;;;;;;29.39;40.33;99508.38;4997159;28;20026;-92
2022/07/29 16:49:17;;;;;;;3.28;1.80;;;;;;;29.38;40.61;99512.06;4996080;28;20377;-92
2022/07/29 16:51:44;;;;;;;3.63;2.00;;;;;;;29.40;40.39;99506.56;4997141;28;20037;-92
2022/07/29 16:54:10;;;;;;;2.53;1.75;;;;;;;29.41;40.30;99513.63;4998218;28;20023;-91
2022/07/29 16:56:38;;;;;;;3.60;1.95;;;;;;;29.40;40.71;99512.81;4997500;28;20030;-92
2022/07/29 16:59:04;;;;;;;2.88;1.95;;;;;;;29.41;40.55;99509.13;4997438;28;20125;-92
2022/07/29 17:01:30;;;;;;;2.33;1.70;;;;;;;29.42;40.60;99515.31;4998167;28;20038;-93
2022/07/29 17:04:05;;;;;;;2.45;1.80;;;;;;;29.41;40.62;99516.31;4981610;28;20043;-91
2022/07/29 17:06:42;;;;;;;2.72;1.80;;;;;;;29.41;40.46;99519.88;4998146;28;20030;-91
2022/07/29 17:09:23;;;;;;;2.60;1.80;;;;;;;29.41;40.56;99525.25;4995045;28;20043;-90
2022/07/29 17:11:54;;;;;;;2.88;1.95;;;;;;;29.41;40.74;99525.25;4998236;28;20098;-91
2022/07/29 17:14:31;;;;;;;2.92;1.90;;;;;;;29.41;40.68;99529.75;4998309;28;20070;-91
2022/07/29 17:17:07;;;;;;;3.42;2.03;;;;;;;29.41;40.78;99536.00;4982067;28;20087;-91
2022/07/29 17:23:52;;;;;;;3.03;2.00;;;;;;;29.43;40.62;99538.50;4979913;28;20058;-91
2022/07/29 17:26:19;;;;;;;3.20;2.13;;;;;;;29.41;41.19;99537.81;4977742;29;20119;-90
2022/07/29 17:28:47;;;;;;;3.83;1.80;;;;;;;29.41;41.26;99536.00;4977890;29;20018;-90
2022/07/29 17:31:13;;;;;;;3.13;2.13;;;;;;;29.40;41.44;99542.38;4977709;29;20031;-91
2022/07/29 17:33:39;;;;;;;3.00;1.75;;;;;;;29.39;40.91;99546.03;4962647;29;20019;-92
2022/07/29 17:36:27;;;;;;;3.47;1.83;;;;;;;29.39;41.08;99548.72;4978840;28;20035;-91
2022/07/29 17:39:10;;;;;;;3.25;1.88;;;;;;;29.39;40.97;99551.41;4977309;29;20039;-92
2022/07/29 17:41:39;;;;;;;2.80;2.10;;;;;;;29.40;40.83;99550.44;4978665;29;20042;-91
2022/07/29 17:44:08;;;;;;;3.05;1.90;;;;;;;29.39;40.48;99554.09;4977953;29;20063;-92
2022/07/29 17:46:35;;;;;;;3.20;1.70;;;;;;;29.40;40.66;99552.25;4978688;28;20015;-90
2022/07/29 17:49:01;;;;;;;2.80;1.73;;;;;;;29.39;40.67;99559.47;4977640;29;20110;-90
2022/07/29 17:51:27;;;;;;;3.20;1.95;;;;;;;29.39;40.99;99558.63;4976746;29;20027;-91
2022/07/29 17:53:54;;;;;;;3.13;2.17;;;;;;;29.38;41.38;99568.53;4960904;29;20031;-92
2022/07/29 17:56:22;;;;;;;2.58;1.70;;;;;;;29.39;41.14;99569.38;4977744;29;20050;-90
2022/07/29 17:58:49;;;;;;;3.10;2.00;;;;;;;29.38;41.17;99568.53;4978385;29;20007;-90
2022/07/29 18:01:16;;;;;;;3.40;1.88;;;;;;;29.37;41.38;99557.91;4978867;28;20023;-90
2022/07/29 18:03:44;;;;;;;3.47;1.80;;;;;;;29.36;41.03;99565.16;4963153;28;20015;-90
2022/07/29 18:06:13;;;;;;;4.13;2.00;;;;;;;29.36;41.56;99565.16;4978832;29;20027;-90
2022/07/29 18:08:40;;;;;;;3.10;1.90;;;;;;;29.35;41.61;99564.28;4978992;29;20014;-90
2022/07/29 18:17:17;;;;;;;4.00;2.10;;;;;;;29.32;42.69;99558.34;5041052;23;20061;-90
2022/07/29 18:19:43;;;;;;;4.28;1.88;;;;;;;29.34;42.20;99577.84;4999614;28;20034;-91
2022/07/29 18:22:12;;;;;;;2.97;1.73;;;;;;;29.32;42.03;99574.47;4999143;28;20022;-91
2022/07/29 18:24:43;;;;;;;3.22;1.73;;;;;;;29.32;41.55;99574.47;4985271;28;20030;-91
2022/07/29 18:27:27;;;;;;;3.85;2.17;;;;;;;29.31;41.72;99583.53;5016633;28;20014;-90
2022/07/29 18:29:57;;;;;;;3.00;1.88;;;;;;;29.31;42.06;99583.53;4984223;28;20014;-91
2022/07/29 18:39:35;;;;;;;;;;;;;;;;;;;;;
2022/07/29 18:42:54;;;;;;;2.95;1.95;;;;;;;29.28;42.02;99591.88;5016900;28;20023;-91
2022/07/29 18:45:38;;;;;;;3.58;1.98;;;;;;;29.28;42.14;99599.94;5000630;28;20086;-90
2022/07/29 18:48:33;;;;;;;3.53;2.40;;;;;;;29.26;42.51;99599.25;5002278;28;20092;-90
2022/07/29 18:51:03;;;;;;;2.78;1.92;;;;;;;29.26;42.67;99601.94;4962518;28;20042;-90